sensor_id;sensor_type;location;lat;lon;timestamp;pressure;altitude;pressure_sealevel;temperature;humidity
49627;BME280;35527;54.616;39.786;2023-02-07T00:01:34;101730.31;;;-10.20;100.00
49627;BME280;35527;54.616;39.786;2023-02-07T00:04:38;101744.50;;;-10.43;100.00
49627;BME280;35527;54.616;39.786;2023-02-07T00:07:41;101727.22;;;-10.39;100.00
49627;BME280;35527;54.616;39.786;2023-02-07T00:10:51;101727.53;;;-10.47;100.00
49627;BME280;35527;54.616;39.786;2023-02-07T00:13:58;101737.34;;;-10.60;100.00
49627;BME280;35527;54.616;39.786;2023-02-07T00:17:04;101716.03;;;-10.77;100.00
49627;BME280;35527;54.616;39.786;2023-02-07T00:20:07;101755.06;;;-10.57;100.00
49627;BME280;35527;54.616;39.786;2023-02-07T00:23:13;101755.72;;;-10.59;100.00
49627;BME280;35527;54.616;39.786;2023-02-07T00:26:21;101769.63;;;-10.63;100.00
49627;BME280;35527;54.616;39.786;2023-02-07T00:29:49;101768.19;;;-10.81;100.00
49627;BME280;35527;54.616;39.786;2023-02-07T00:32:53;101786.81;;;-10.78;100.00
49627;BME280;35527;54.616;39.786;2023-02-07T00:35:59;101778.84;;;-10.84;100.00
49627;BME280;35527;54.616;39.786;2023-02-07T00:39:12;101794.06;;;-10.81;100.00
49627;BME280;35527;54.616;39.786;2023-02-07T00:42:15;101762.50;;;-11.01;100.00
49627;BME280;35527;54.616;39.786;2023-02-07T00:45:18;101755.00;;;-11.01;100.00
49627;BME280;35527;54.616;39.786;2023-02-07T00:48:24;101763.22;;;-11.02;100.00
49627;BME280;35527;54.616;39.786;2023-02-07T00:51:38;101755.00;;;-11.01;100.00
49627;BME280;35527;54.616;39.786;2023-02-07T00:54:45;101794.00;;;-10.93;100.00
49627;BME280;35527;54.616;39.786;2023-02-07T00:57:48;101797.59;;;-10.99;100.00
49627;BME280;35527;54.616;39.786;2023-02-07T01:00:57;101770.78;;;-11.22;100.00
49627;BME280;35527;54.616;39.786;2023-02-07T01:04:01;101798.31;;;-10.90;100.00
49627;BME280;35527;54.616;39.786;2023-02-07T01:07:03;101797.47;;;-10.91;100.00
49627;BME280;35527;54.616;39.786;2023-02-07T01:10:08;101802.97;;;-10.95;100.00
49627;BME280;35527;54.616;39.786;2023-02-07T01:13:16;101798.47;;;-10.99;100.00
49627;BME280;35527;54.616;39.786;2023-02-07T01:16:28;101798.00;;;-11.05;100.00
49627;BME280;35527;54.616;39.786;2023-02-07T01:19:36;101802.66;;;-11.20;100.00
49627;BME280;35527;54.616;39.786;2023-02-07T01:22:39;101804.28;;;-11.30;100.00
49627;BME280;35527;54.616;39.786;2023-02-07T01:25:45;101797.66;;;-11.71;100.00
49627;BME280;35527;54.616;39.786;2023-02-07T01:28:52;101803.19;;;-11.75;100.00
49627;BME280;35527;54.616;39.786;2023-02-07T01:32:22;101734.16;;;-12.15;100.00
49627;BME280;35527;54.616;39.786;2023-02-07T01:35:25;101758.13;;;-12.07;100.00
49627;BME280;35527;54.616;39.786;2023-02-07T01:38:28;101800.16;;;-11.50;100.00
49627;BME280;35527;54.616;39.786;2023-02-07T01:41:36;101796.19;;;-11.89;100.00
49627;BME280;35527;54.616;39.786;2023-02-07T01:47:46;101794.31;;;-11.92;100.00
49627;BME280;35527;54.616;39.786;2023-02-07T01:50:57;101803.31;;;-11.63;100.00
49627;BME280;35527;54.616;39.786;2023-02-07T01:54:05;101788.06;;;-11.97;100.00
49627;BME280;35527;54.616;39.786;2023-02-07T01:57:13;101827.28;;;-11.86;100.00
49627;BME280;35527;54.616;39.786;2023-02-07T02:00:18;101798.53;;;-12.11;100.00
49627;BME280;35527;54.616;39.786;2023-02-07T02:03:22;101840.00;;;-11.93;100.00
49627;BME280;35527;54.616;39.786;2023-02-07T02:06:52;101826.38;;;-12.07;100.00
49627;BME280;35527;54.616;39.786;2023-02-07T02:09:54;101819.41;;;-11.90;100.00
49627;BME280;35527;54.616;39.786;2023-02-07T02:13:22;101844.00;;;-11.95;100.00
49627;BME280;35527;54.616;39.786;2023-02-07T02:16:43;101848.88;;;-12.26;100.00
49627;BME280;35527;54.616;39.786;2023-02-07T02:37:57;101840.22;;;-12.39;100.00
49627;BME280;35527;54.616;39.786;2023-02-07T02:41:10;101826.28;;;-12.66;100.00
49627;BME280;35527;54.616;39.786;2023-02-07T02:44:25;101879.56;;;-12.27;100.00
49627;BME280;35527;54.616;39.786;2023-02-07T02:47:35;101886.00;;;-12.10;100.00
49627;BME280;35527;54.616;39.786;2023-02-07T02:50:45;101859.78;;;-12.15;100.00
49627;BME280;35527;54.616;39.786;2023-02-07T03:11:12;101904.50;;;-11.17;100.00
49627;BME280;35527;54.616;39.786;2023-02-07T03:14:43;101912.38;;;-11.13;100.00
49627;BME280;35527;54.616;39.786;2023-02-07T03:24:06;101890.88;;;-11.00;100.00
49627;BME280;35527;54.616;39.786;2023-02-07T03:27:15;101917.72;;;-10.88;100.00
49627;BME280;35527;54.616;39.786;2023-02-07T03:30:22;101915.59;;;-10.93;100.00
49627;BME280;35527;54.616;39.786;2023-02-07T03:33:26;101920.72;;;-11.02;100.00
49627;BME280;35527;54.616;39.786;2023-02-07T03:37:06;101920.63;;;-11.24;100.00
49627;BME280;35527;54.616;39.786;2023-02-07T03:40:15;101925.94;;;-11.40;100.00
49627;BME280;35527;54.616;39.786;2023-02-07T03:43:21;101916.59;;;-11.52;100.00
49627;BME280;35527;54.616;39.786;2023-02-07T03:46:34;101908.84;;;-11.35;100.00
49627;BME280;35527;54.616;39.786;2023-02-07T03:49:37;101931.59;;;-11.32;100.00
49627;BME280;35527;54.616;39.786;2023-02-07T03:52:41;101925.00;;;-11.21;100.00
49627;BME280;35527;54.616;39.786;2023-02-07T03:55:46;101937.84;;;-10.96;100.00
49627;BME280;35527;54.616;39.786;2023-02-07T03:58:56;101913.69;;;-10.65;100.00
49627;BME280;35527;54.616;39.786;2023-02-07T04:02:01;101945.03;;;-10.38;100.00
49627;BME280;35527;54.616;39.786;2023-02-07T04:05:06;101927.91;;;-10.44;100.00
49627;BME280;35527;54.616;39.786;2023-02-07T04:08:09;101911.66;;;-10.49;100.00
49627;BME280;35527;54.616;39.786;2023-02-07T04:11:12;101938.78;;;-10.33;100.00
49627;BME280;35527;54.616;39.786;2023-02-07T04:14:17;101946.84;;;-10.25;100.00
49627;BME280;35527;54.616;39.786;2023-02-07T04:17:26;101967.88;;;-10.23;100.00
49627;BME280;35527;54.616;39.786;2023-02-07T04:20:32;101962.66;;;-10.36;100.00
49627;BME280;35527;54.616;39.786;2023-02-07T04:23:36;101944.19;;;-10.49;100.00
49627;BME280;35527;54.616;39.786;2023-02-07T04:26:39;101968.31;;;-10.39;100.00
49627;BME280;35527;54.616;39.786;2023-02-07T04:29:45;101979.56;;;-10.34;100.00
49627;BME280;35527;54.616;39.786;2023-02-07T04:32:52;101987.94;;;-10.33;100.00
49627;BME280;35527;54.616;39.786;2023-02-07T04:36:00;101996.03;;;-10.26;100.00
49627;BME280;35527;54.616;39.786;2023-02-07T04:39:03;102002.97;;;-10.54;100.00
49627;BME280;35527;54.616;39.786;2023-02-07T04:42:08;102018.25;;;-10.51;100.00
49627;BME280;35527;54.616;39.786;2023-02-07T04:45:12;102018.13;;;-10.62;100.00
49627;BME280;35527;54.616;39.786;2023-02-07T04:48:15;102007.47;;;-10.70;100.00
49627;BME280;35527;54.616;39.786;2023-02-07T04:51:42;102035.63;;;-10.62;100.00
49627;BME280;35527;54.616;39.786;2023-02-07T04:54:47;102044.66;;;-10.54;100.00
49627;BME280;35527;54.616;39.786;2023-02-07T04:57:50;102039.50;;;-10.56;100.00
49627;BME280;35527;54.616;39.786;2023-02-07T05:01:18;102051.63;;;-10.50;100.00
49627;BME280;35527;54.616;39.786;2023-02-07T05:04:22;102061.25;;;-10.45;100.00
49627;BME280;35527;54.616;39.786;2023-02-07T05:07:27;102071.03;;;-10.37;100.00
49627;BME280;35527;54.616;39.786;2023-02-07T05:10:35;102066.41;;;-10.33;100.00
49627;BME280;35527;54.616;39.786;2023-02-07T05:13:39;102067.13;;;-10.24;100.00
49627;BME280;35527;54.616;39.786;2023-02-07T05:16:42;102063.75;;;-10.24;100.00
49627;BME280;35527;54.616;39.786;2023-02-07T05:19:47;102066.81;;;-9.21;100.00
49627;BME280;35527;54.616;39.786;2023-02-07T05:22:51;102074.59;;;-7.46;100.00
49627;BME280;35527;54.616;39.786;2023-02-07T05:25:54;102062.53;;;-6.40;100.00
49627;BME280;35527;54.616;39.786;2023-02-07T05:28:58;102062.75;;;-5.57;100.00
49627;BME280;35527;54.616;39.786;2023-02-07T05:32:29;102056.38;;;-4.83;100.00
49627;BME280;35527;54.616;39.786;2023-02-07T05:35:51;102074.66;;;-4.29;100.00
49627;BME280;35527;54.616;39.786;2023-02-07T05:38:55;102088.25;;;-3.82;92.13
49627;BME280;35527;54.616;39.786;2023-02-07T05:41:58;102096.63;;;-3.06;73.32
49627;BME280;35527;54.616;39.786;2023-02-07T05:45:03;102093.34;;;-2.89;62.47
49627;BME280;35527;54.616;39.786;2023-02-07T05:48:07;102118.03;;;-2.85;60.33
49627;BME280;35527;54.616;39.786;2023-02-07T05:51:11;102106.06;;;-2.87;59.23
49627;BME280;35527;54.616;39.786;2023-02-07T05:54:18;102131.81;;;-2.31;57.33
49627;BME280;35527;54.616;39.786;2023-02-07T05:57:22;102108.44;;;-1.73;59.08
49627;BME280;35527;54.616;39.786;2023-02-07T06:00:25;102112.72;;;-1.36;58.48
49627;BME280;35527;54.616;39.786;2023-02-07T06:03:28;102125.34;;;-0.82;52.95
49627;BME280;35527;54.616;39.786;2023-02-07T06:06:33;102132.84;;;-0.47;51.73
49627;BME280;35527;54.616;39.786;2023-02-07T06:09:36;102132.97;;;-0.43;48.66
49627;BME280;35527;54.616;39.786;2023-02-07T06:12:39;102146.16;;;-0.33;47.01
49627;BME280;35527;54.616;39.786;2023-02-07T06:15:42;102107.31;;;-0.29;46.33
49627;BME280;35527;54.616;39.786;2023-02-07T06:18:48;102134.00;;;0.21;45.43
49627;BME280;35527;54.616;39.786;2023-02-07T06:21:54;102141.00;;;0.27;45.06
49627;BME280;35527;54.616;39.786;2023-02-07T06:24:59;102155.38;;;-0.35;44.79
49627;BME280;35527;54.616;39.786;2023-02-07T06:28:01;102165.56;;;-0.74;46.89
49627;BME280;35527;54.616;39.786;2023-02-07T06:31:05;102162.94;;;-0.56;47.08
49627;BME280;35527;54.616;39.786;2023-02-07T06:34:10;102179.47;;;-0.07;45.34
49627;BME280;35527;54.616;39.786;2023-02-07T06:37:15;102179.28;;;0.29;44.03
49627;BME280;35527;54.616;39.786;2023-02-07T06:40:19;102182.56;;;0.26;43.55
49627;BME280;35527;54.616;39.786;2023-02-07T06:43:23;102167.19;;;0.23;44.07
49627;BME280;35527;54.616;39.786;2023-02-07T06:46:26;102156.78;;;0.83;43.06
49627;BME280;35527;54.616;39.786;2023-02-07T06:49:33;102174.94;;;1.35;42.65
49627;BME280;35527;54.616;39.786;2023-02-07T06:52:38;102170.53;;;2.03;40.62
49627;BME280;35527;54.616;39.786;2023-02-07T06:55:42;102166.06;;;2.49;40.03
49627;BME280;35527;54.616;39.786;2023-02-07T06:58:46;102179.34;;;2.64;40.08
49627;BME280;35527;54.616;39.786;2023-02-07T07:01:52;102158.06;;;2.65;40.09
49627;BME280;35527;54.616;39.786;2023-02-07T07:05:19;102186.78;;;3.12;38.44
49627;BME280;35527;54.616;39.786;2023-02-07T07:08:25;102160.34;;;3.12;38.95
49627;BME280;35527;54.616;39.786;2023-02-07T07:11:28;102157.03;;;3.16;38.13
49627;BME280;35527;54.616;39.786;2023-02-07T07:14:31;102194.31;;;3.67;37.81
49627;BME280;35527;54.616;39.786;2023-02-07T07:17:35;102174.59;;;3.34;37.52
49627;BME280;35527;54.616;39.786;2023-02-07T07:21:03;102189.88;;;3.31;37.84
49627;BME280;35527;54.616;39.786;2023-02-07T07:24:11;102194.16;;;3.62;36.87
49627;BME280;35527;54.616;39.786;2023-02-07T07:27:19;102187.97;;;3.86;36.80
49627;BME280;35527;54.616;39.786;2023-02-07T07:30:22;102193.34;;;3.95;36.47
49627;BME280;35527;54.616;39.786;2023-02-07T07:33:26;102206.66;;;4.46;36.56
49627;BME280;35527;54.616;39.786;2023-02-07T07:36:29;102213.91;;;4.64;35.81
49627;BME280;35527;54.616;39.786;2023-02-07T07:39:34;102192.50;;;4.29;36.03
49627;BME280;35527;54.616;39.786;2023-02-07T07:42:39;102218.25;;;4.32;36.31
49627;BME280;35527;54.616;39.786;2023-02-07T07:45:56;102211.31;;;4.28;36.78
49627;BME280;35527;54.616;39.786;2023-02-07T07:49:00;102221.03;;;4.08;36.21
49627;BME280;35527;54.616;39.786;2023-02-07T07:52:04;102218.00;;;3.91;37.14
49627;BME280;35527;54.616;39.786;2023-02-07T07:55:07;102205.56;;;4.05;36.66
49627;BME280;35527;54.616;39.786;2023-02-07T07:58:13;102230.84;;;3.61;37.67
49627;BME280;35527;54.616;39.786;2023-02-07T08:01:16;102220.63;;;3.61;38.24
49627;BME280;35527;54.616;39.786;2023-02-07T08:04:21;102226.06;;;3.73;38.76
49627;BME280;35527;54.616;39.786;2023-02-07T08:07:24;102207.31;;;3.44;38.41
49627;BME280;35527;54.616;39.786;2023-02-07T08:10:28;102215.38;;;2.72;39.24
49627;BME280;35527;54.616;39.786;2023-02-07T08:13:32;102226.09;;;3.16;38.90
49627;BME280;35527;54.616;39.786;2023-02-07T08:16:35;102225.75;;;3.63;38.15
49627;BME280;35527;54.616;39.786;2023-02-07T08:19:38;102196.50;;;3.54;38.41
49627;BME280;35527;54.616;39.786;2023-02-07T08:22:41;102251.47;;;3.37;39.13
49627;BME280;35527;54.616;39.786;2023-02-07T08:25:45;102242.13;;;3.10;39.57
49627;BME280;35527;54.616;39.786;2023-02-07T08:28:49;102217.59;;;3.17;39.19
49627;BME280;35527;54.616;39.786;2023-02-07T08:31:54;102236.88;;;3.06;39.72
49627;BME280;35527;54.616;39.786;2023-02-07T08:34:59;102221.91;;;3.18;39.66
49627;BME280;35527;54.616;39.786;2023-02-07T08:38:02;102235.47;;;3.44;39.36
49627;BME280;35527;54.616;39.786;2023-02-07T08:41:06;102228.44;;;3.97;38.45
49627;BME280;35527;54.616;39.786;2023-02-07T08:44:11;102216.50;;;3.98;38.79
49627;BME280;35527;54.616;39.786;2023-02-07T08:47:16;102232.06;;;3.44;39.46
49627;BME280;35527;54.616;39.786;2023-02-07T08:50:21;102239.06;;;3.51;40.25
49627;BME280;35527;54.616;39.786;2023-02-07T08:53:24;102210.09;;;3.23;40.09
49627;BME280;35527;54.616;39.786;2023-02-07T08:56:29;102237.06;;;3.69;39.97
49627;BME280;35527;54.616;39.786;2023-02-07T08:59:32;102237.72;;;3.94;39.58
49627;BME280;35527;54.616;39.786;2023-02-07T09:02:40;102239.13;;;4.14;39.50
49627;BME280;35527;54.616;39.786;2023-02-07T09:05:46;102225.59;;;4.20;39.04
49627;BME280;35527;54.616;39.786;2023-02-07T09:08:49;102219.16;;;4.02;38.71
49627;BME280;35527;54.616;39.786;2023-02-07T09:11:54;102222.72;;;3.46;40.35
49627;BME280;35527;54.616;39.786;2023-02-07T09:14:57;102213.63;;;3.55;39.81
49627;BME280;35527;54.616;39.786;2023-02-07T09:18:02;102238.72;;;3.67;40.11
49627;BME280;35527;54.616;39.786;2023-02-07T09:21:05;102219.13;;;4.34;39.56
49627;BME280;35527;54.616;39.786;2023-02-07T09:24:11;102250.03;;;3.75;40.23
49627;BME280;35527;54.616;39.786;2023-02-07T09:27:13;102224.75;;;3.88;39.66
49627;BME280;35527;54.616;39.786;2023-02-07T09:30:17;102243.38;;;3.82;39.66
49627;BME280;35527;54.616;39.786;2023-02-07T09:33:22;102225.13;;;2.84;41.15
49627;BME280;35527;54.616;39.786;2023-02-07T09:36:29;102225.66;;;2.48;42.05
49627;BME280;35527;54.616;39.786;2023-02-07T09:39:37;102222.03;;;2.16;42.63
49627;BME280;35527;54.616;39.786;2023-02-07T09:42:54;102249.72;;;2.03;44.13
49627;BME280;35527;54.616;39.786;2023-02-07T09:46:11;102226.03;;;2.59;43.25
49627;BME280;35527;54.616;39.786;2023-02-07T09:49:36;102234.44;;;1.81;43.58
49627;BME280;35527;54.616;39.786;2023-02-07T09:52:57;102262.94;;;1.93;44.03
49627;BME280;35527;54.616;39.786;2023-02-07T09:56:07;102256.19;;;2.43;42.60
49627;BME280;35527;54.616;39.786;2023-02-07T09:59:42;102257.75;;;2.65;43.07
49627;BME280;35527;54.616;39.786;2023-02-07T10:03:18;102269.53;;;2.35;43.88
49627;BME280;35527;54.616;39.786;2023-02-07T10:06:26;102254.06;;;2.06;44.64
49627;BME280;35527;54.616;39.786;2023-02-07T10:09:37;102265.03;;;2.03;44.03
49627;BME280;35527;54.616;39.786;2023-02-07T10:13:24;102247.25;;;0.93;46.07
49627;BME280;35527;54.616;39.786;2023-02-07T10:16:42;102254.44;;;1.03;45.91
49627;BME280;35527;54.616;39.786;2023-02-07T10:20:15;102267.38;;;0.65;46.82
49627;BME280;35527;54.616;39.786;2023-02-07T10:23:43;102237.94;;;0.11;48.59
49627;BME280;35527;54.616;39.786;2023-02-07T10:26:53;102257.78;;;0.18;48.52
49627;BME280;35527;54.616;39.786;2023-02-07T10:30:07;102244.09;;;-0.23;49.57
49627;BME280;35527;54.616;39.786;2023-02-07T10:33:19;102259.47;;;-0.02;48.79
49627;BME280;35527;54.616;39.786;2023-02-07T10:36:25;102256.47;;;0.28;48.52
49627;BME280;35527;54.616;39.786;2023-02-07T10:39:39;102259.59;;;-0.56;49.63
49627;BME280;35527;54.616;39.786;2023-02-07T10:42:51;102264.75;;;-0.72;49.90
49627;BME280;35527;54.616;39.786;2023-02-07T10:45:59;102262.50;;;-0.29;49.85
49627;BME280;35527;54.616;39.786;2023-02-07T10:49:36;102249.50;;;-0.54;50.11
49627;BME280;35527;54.616;39.786;2023-02-07T10:52:49;102250.53;;;-0.31;49.39
49627;BME280;35527;54.616;39.786;2023-02-07T10:55:52;102214.53;;;-1.14;50.78
49627;BME280;35527;54.616;39.786;2023-02-07T10:58:56;102244.16;;;-1.14;51.73
49627;BME280;35527;54.616;39.786;2023-02-07T11:05:34;102234.19;;;-1.09;51.39
49627;BME280;35527;54.616;39.786;2023-02-07T11:08:37;102227.34;;;-1.46;52.58
49627;BME280;35527;54.616;39.786;2023-02-07T11:11:47;102218.13;;;-1.62;52.68
49627;BME280;35527;54.616;39.786;2023-02-07T11:15:02;102245.59;;;-1.37;52.27
49627;BME280;35527;54.616;39.786;2023-02-07T11:18:44;102253.22;;;-1.88;53.26
49627;BME280;35527;54.616;39.786;2023-02-07T11:21:52;102228.94;;;-1.83;53.09
49627;BME280;35527;54.616;39.786;2023-02-07T11:25:02;102206.69;;;-1.88;53.22
49627;BME280;35527;54.616;39.786;2023-02-07T11:28:12;102247.47;;;-1.15;52.01
49627;BME280;35527;54.616;39.786;2023-02-07T11:31:18;102212.50;;;-1.73;52.45
49627;BME280;35527;54.616;39.786;2023-02-07T11:35:00;102252.91;;;-2.10;54.05
49627;BME280;35527;54.616;39.786;2023-02-07T11:38:13;102234.88;;;-1.66;53.56
49627;BME280;35527;54.616;39.786;2023-02-07T11:41:23;102250.19;;;-1.46;53.87
49627;BME280;35527;54.616;39.786;2023-02-07T11:44:29;102250.41;;;-1.07;53.23
49627;BME280;35527;54.616;39.786;2023-02-07T11:47:33;102226.13;;;-1.54;53.45
49627;BME280;35527;54.616;39.786;2023-02-07T11:50:39;102225.63;;;-1.98;53.57
49627;BME280;35527;54.616;39.786;2023-02-07T11:53:49;102260.66;;;-2.07;54.81
49627;BME280;35527;54.616;39.786;2023-02-07T11:57:05;102269.78;;;-2.27;56.01
49627;BME280;35527;54.616;39.786;2023-02-07T12:00:27;102269.53;;;-2.15;56.25
49627;BME280;35527;54.616;39.786;2023-02-07T12:06:56;102277.91;;;-2.80;56.83
49627;BME280;35527;54.616;39.786;2023-02-07T12:10:03;102260.78;;;-2.84;58.53
49627;BME280;35527;54.616;39.786;2023-02-07T12:13:40;102281.72;;;-2.72;57.37
49627;BME280;35527;54.616;39.786;2023-02-07T12:16:55;102275.50;;;-2.62;57.44
49627;BME280;35527;54.616;39.786;2023-02-07T12:20:06;102251.47;;;-2.69;57.85
49627;BME280;35527;54.616;39.786;2023-02-07T12:23:55;102256.25;;;-2.90;57.45
49627;BME280;35527;54.616;39.786;2023-02-07T12:27:14;102250.63;;;-3.45;58.91
49627;BME280;35527;54.616;39.786;2023-02-07T12:30:29;102257.25;;;-3.47;60.61
49627;BME280;35527;54.616;39.786;2023-02-07T12:33:43;102284.13;;;-3.05;59.82
49627;BME280;35527;54.616;39.786;2023-02-07T12:36:55;102276.09;;;-3.12;60.06
49627;BME280;35527;54.616;39.786;2023-02-07T12:40:18;102283.88;;;-3.69;60.05
49627;BME280;35527;54.616;39.786;2023-02-07T12:43:35;102260.81;;;-3.73;61.87
49627;BME280;35527;54.616;39.786;2023-02-07T12:47:00;102282.00;;;-4.14;63.88
49627;BME280;35527;54.616;39.786;2023-02-07T13:10:34;102316.56;;;-4.81;73.52
49627;BME280;35527;54.616;39.786;2023-02-07T13:13:53;102331.72;;;-4.94;74.26
49627;BME280;35527;54.616;39.786;2023-02-07T13:23:45;102337.81;;;-5.17;76.78
49627;BME280;35527;54.616;39.786;2023-02-07T13:26:54;102334.78;;;-5.25;78.00
49627;BME280;35527;54.616;39.786;2023-02-07T13:30:00;102344.47;;;-5.31;78.82
49627;BME280;35527;54.616;39.786;2023-02-07T13:36:43;102362.97;;;-5.69;81.89
49627;BME280;35527;54.616;39.786;2023-02-07T13:40:20;102352.47;;;-5.87;83.95
49627;BME280;35527;54.616;39.786;2023-02-07T13:43:59;102369.66;;;-5.95;84.61
49627;BME280;35527;54.616;39.786;2023-02-07T13:47:35;102354.66;;;-6.05;85.17
49627;BME280;35527;54.616;39.786;2023-02-07T14:01:00;102312.59;;;-6.54;87.31
49627;BME280;35527;54.616;39.786;2023-02-07T14:04:11;102356.25;;;-6.30;87.09
49627;BME280;35527;54.616;39.786;2023-02-07T14:07:26;102362.81;;;-6.56;87.51
49627;BME280;35527;54.616;39.786;2023-02-07T14:11:01;102368.22;;;-6.63;89.74
49627;BME280;35527;54.616;39.786;2023-02-07T14:14:33;102345.72;;;-6.95;90.21
49627;BME280;35527;54.616;39.786;2023-02-07T14:20:47;102369.13;;;-7.08;92.22
49627;BME280;35527;54.616;39.786;2023-02-07T14:30:55;102363.06;;;-7.22;92.70
49627;BME280;35527;54.616;39.786;2023-02-07T14:34:12;102359.53;;;-7.36;92.78
49627;BME280;35527;54.616;39.786;2023-02-07T14:37:19;102362.66;;;-7.16;94.13
49627;BME280;35527;54.616;39.786;2023-02-07T14:40:35;102342.53;;;-7.50;93.98
49627;BME280;35527;54.616;39.786;2023-02-07T14:43:52;102326.38;;;-7.42;93.96
49627;BME280;35527;54.616;39.786;2023-02-07T14:47:19;102339.56;;;-7.56;94.58
49627;BME280;35527;54.616;39.786;2023-02-07T14:50:28;102338.03;;;-7.66;95.72
49627;BME280;35527;54.616;39.786;2023-02-07T14:53:37;102360.72;;;-7.42;95.44
49627;BME280;35527;54.616;39.786;2023-02-07T15:03:30;102364.84;;;-7.55;98.94
49627;BME280;35527;54.616;39.786;2023-02-07T15:06:43;102347.34;;;-7.53;99.36
49627;BME280;35527;54.616;39.786;2023-02-07T15:09:47;102363.84;;;-7.57;99.66
49627;BME280;35527;54.616;39.786;2023-02-07T15:12:51;102378.94;;;-7.57;99.74
49627;BME280;35527;54.616;39.786;2023-02-07T15:16:02;102364.03;;;-7.65;100.00
49627;BME280;35527;54.616;39.786;2023-02-07T15:19:40;102376.22;;;-7.48;100.00
49627;BME280;35527;54.616;39.786;2023-02-07T15:22:47;102369.41;;;-7.61;100.00
49627;BME280;35527;54.616;39.786;2023-02-07T15:25:52;102335.91;;;-7.94;100.00
49627;BME280;35527;54.616;39.786;2023-02-07T15:29:05;102399.47;;;-7.62;100.00
49627;BME280;35527;54.616;39.786;2023-02-07T15:32:27;102368.66;;;-7.82;100.00
49627;BME280;35527;54.616;39.786;2023-02-07T15:35:37;102375.44;;;-7.81;100.00
49627;BME280;35527;54.616;39.786;2023-02-07T15:38:41;102367.19;;;-7.90;100.00
49627;BME280;35527;54.616;39.786;2023-02-07T15:41:50;102389.75;;;-7.80;100.00
49627;BME280;35527;54.616;39.786;2023-02-07T15:44:56;102396.06;;;-7.85;100.00
49627;BME280;35527;54.616;39.786;2023-02-07T15:48:02;102385.31;;;-7.94;100.00
49627;BME280;35527;54.616;39.786;2023-02-07T15:51:05;102385.00;;;-7.87;100.00
49627;BME280;35527;54.616;39.786;2023-02-07T15:54:17;102378.63;;;-7.94;100.00
49627;BME280;35527;54.616;39.786;2023-02-07T15:57:28;102394.19;;;-7.87;100.00
49627;BME280;35527;54.616;39.786;2023-02-07T16:00:37;102370.50;;;-8.01;100.00
49627;BME280;35527;54.616;39.786;2023-02-07T16:03:43;102370.56;;;-8.11;100.00
49627;BME280;35527;54.616;39.786;2023-02-07T16:07:04;102388.75;;;-8.04;100.00
49627;BME280;35527;54.616;39.786;2023-02-07T16:10:32;102389.50;;;-8.05;100.00
49627;BME280;35527;54.616;39.786;2023-02-07T16:13:48;102401.31;;;-8.04;100.00
49627;BME280;35527;54.616;39.786;2023-02-07T16:16:58;102391.44;;;-8.12;100.00
49627;BME280;35527;54.616;39.786;2023-02-07T16:20:02;102403.47;;;-8.08;100.00
49627;BME280;35527;54.616;39.786;2023-02-07T16:23:07;102400.97;;;-8.19;100.00
49627;BME280;35527;54.616;39.786;2023-02-07T16:26:11;102404.88;;;-8.22;100.00
49627;BME280;35527;54.616;39.786;2023-02-07T16:29:19;102411.41;;;-8.24;100.00
49627;BME280;35527;54.616;39.786;2023-02-07T16:32:21;102427.50;;;-8.22;100.00
49627;BME280;35527;54.616;39.786;2023-02-07T16:35:26;102425.91;;;-8.32;100.00
49627;BME280;35527;54.616;39.786;2023-02-07T16:38:29;102403.09;;;-8.45;100.00
49627;BME280;35527;54.616;39.786;2023-02-07T16:41:39;102407.34;;;-8.44;100.00
49627;BME280;35527;54.616;39.786;2023-02-07T16:44:45;102428.03;;;-8.36;100.00
49627;BME280;35527;54.616;39.786;2023-02-07T16:47:48;102429.56;;;-8.39;100.00
49627;BME280;35527;54.616;39.786;2023-02-07T16:50:53;102383.47;;;-8.71;100.00
49627;BME280;35527;54.616;39.786;2023-02-07T16:53:57;102442.88;;;-8.40;100.00
49627;BME280;35527;54.616;39.786;2023-02-07T16:57:00;102403.53;;;-8.61;100.00
49627;BME280;35527;54.616;39.786;2023-02-07T17:00:30;102418.06;;;-8.57;100.00
49627;BME280;35527;54.616;39.786;2023-02-07T17:03:32;102430.00;;;-8.54;100.00
49627;BME280;35527;54.616;39.786;2023-02-07T17:06:35;102442.91;;;-8.50;100.00
49627;BME280;35527;54.616;39.786;2023-02-07T17:09:38;102411.84;;;-8.72;100.00
49627;BME280;35527;54.616;39.786;2023-02-07T17:12:43;102442.16;;;-8.59;100.00
49627;BME280;35527;54.616;39.786;2023-02-07T17:15:46;102452.34;;;-8.57;100.00
49627;BME280;35527;54.616;39.786;2023-02-07T17:18:49;102416.84;;;-8.82;100.00
49627;BME280;35527;54.616;39.786;2023-02-07T17:21:53;102420.22;;;-8.82;100.00
49627;BME280;35527;54.616;39.786;2023-02-07T17:25:01;102454.09;;;-8.46;100.00
49627;BME280;35527;54.616;39.786;2023-02-07T17:28:09;102446.63;;;-8.34;100.00
49627;BME280;35527;54.616;39.786;2023-02-07T17:31:23;102448.50;;;-8.32;100.00
49627;BME280;35527;54.616;39.786;2023-02-07T17:34:28;102433.47;;;-8.42;100.00
49627;BME280;35527;54.616;39.786;2023-02-07T17:37:31;102430.34;;;-8.40;100.00
49627;BME280;35527;54.616;39.786;2023-02-07T17:40:37;102444.31;;;-8.21;100.00
49627;BME280;35527;54.616;39.786;2023-02-07T17:43:42;102447.19;;;-8.17;100.00
49627;BME280;35527;54.616;39.786;2023-02-07T17:46:46;102461.47;;;-7.95;100.00
49627;BME280;35527;54.616;39.786;2023-02-07T17:49:49;102457.00;;;-7.87;100.00
49627;BME280;35527;54.616;39.786;2023-02-07T17:52:55;102446.91;;;-7.77;100.00
49627;BME280;35527;54.616;39.786;2023-02-07T17:55:59;102435.69;;;-7.71;100.00
49627;BME280;35527;54.616;39.786;2023-02-07T17:59:05;102453.50;;;-7.57;100.00
49627;BME280;35527;54.616;39.786;2023-02-07T18:02:34;102449.94;;;-7.49;100.00